Terminal Aerodrome Forecast
Issued by NWS

Home | Current Version | Previous Version | Graphics & Text | Print | Product List | Glossary On
Versions: 1 2 3 4 5 6 7 8 9 10 11 12 13 14 15 16 17 18 19 20
000
FTUS43 KIWX 222300
TAFSBN
TAF
KSBN 222330Z 2300/2324 VRB03KT P6SM SCT025 BKN035
     FM230800 00000KT 3SM BR BKN007
      TEMPO 2309/2313 1SM BR BKN004
     FM231300 10003KT 4SM BR BKN015
     FM231500 11006KT 6SM BR BKN025=

USA.gov is the U.S. government's official web portal to all federal, state and local government web resources and services.